Time;durP1;ratioP1;P1;durP2;ratioP2;P2;SDS_P1;SDS_P2;PMS_P1;PMS_P2;Temp;Humidity;BMP_temperature;BMP_pressure;BME280_temperature;BME280_humidity;BME280_pressure;Samples;Min_cycle;Max_cycle;Signal;HPM_P1;HPM_P2
2022/01/03 00:00:45;;;;;;;;;2.50;2.00;;;;;22.01;45.21;101528.06;5065203;28;52080;-46
2022/01/03 00:03:13;;;;;;;;;1.25;1.25;;;;;22.01;44.62;101538.25;5066965;28;51174;-48
2022/01/03 00:05:39;;;;;;;;;3.00;1.00;;;;;21.98;45.17;101536.75;5064683;28;51315;-48
2022/01/03 00:08:05;;;;;;;;;0.50;0.25;;;;;21.97;44.81;101540.56;5073533;28;51041;-48
2022/01/03 00:10:33;;;;;;;;;1.00;1.00;;;;;21.95;45.21;101537.19;5066021;27;52523;-45
2022/01/03 00:12:59;;;;;;;;;2.00;1.00;;;;;21.94;44.79;101535.50;5066666;28;51138;-49
2022/01/03 00:15:24;;;;;;;;;2.75;1.00;;;;;21.92;45.23;101534.88;5065754;28;51101;-47
2022/01/03 00:17:51;;;;;;;;;1.00;1.00;;;;;21.91;45.23;101541.47;5066473;28;51733;-46
2022/01/03 00:20:16;;;;;;;;;3.75;1.00;;;;;21.89;45.18;101543.59;5064450;28;52142;-43
2022/01/03 00:23:04;;;;;;;;;1.00;1.00;;;;;21.88;44.62;101547.38;5062097;28;51118;-45
2022/01/03 00:25:33;;;;;;;;;1.75;1.75;;;;;21.85;45.05;101542.31;5063722;28;51106;-50
2022/01/03 00:28:15;;;;;;;;;1.00;1.00;;;;;21.82;45.02;101543.59;5064562;27;51084;-43
2022/01/03 00:30:42;;;;;;;;;1.00;1.00;;;;;21.82;44.67;101551.00;5063860;28;51927;-44
2022/01/03 00:33:08;;;;;;;;;2.00;1.00;;;;;21.80;44.68;101564.19;5068549;28;51226;-48
2022/01/03 00:35:39;;;;;;;;;3.00;1.00;;;;;21.78;45.23;101553.38;5063272;28;51189;-47
2022/01/03 00:38:08;;;;;;;;;2.50;1.00;;;;;21.77;44.98;101553.56;5056713;28;51051;-45
2022/01/03 00:40:34;;;;;;;;;0.75;0.75;;;;;21.75;44.59;101562.03;5060527;28;51018;-44
2022/01/03 00:43:02;;;;;;;;;1.00;1.00;;;;;21.73;45.27;101558.66;5064539;28;51121;-45
2022/01/03 00:45:27;;;;;;;;;1.00;1.00;;;;;21.73;44.94;101566.09;5063197;28;51315;-45
2022/01/03 00:47:54;;;;;;;;;2.75;0.50;;;;;21.71;44.71;101559.94;5055899;28;51005;-46
2022/01/03 00:50:22;;;;;;;;;1.00;0.25;;;;;21.70;45.08;101578.41;5058581;28;51985;-48
2022/01/03 00:52:49;;;;;;;;;1.25;1.00;;;;;21.70;44.92;101570.13;5062961;27;51224;-45
2022/01/03 00:55:14;;;;;;;;;3.75;1.00;;;;;21.68;45.03;101565.91;5064227;28;51154;-47
2022/01/03 00:57:48;;;;;;;;;5.00;1.00;;;;;21.66;44.58;101566.06;5061023;28;51063;-46
2022/01/03 01:00:14;;;;;;;;;2.75;1.75;;;;;21.66;44.63;101570.75;5057169;28;52062;-49
2022/01/03 01:02:50;;;;;;;;;0.00;0.00;;;;;21.64;45.11;101567.34;5066977;28;51157;-46
2022/01/03 01:05:18;;;;;;;;;0.50;0.50;;;;;21.62;44.96;101559.31;5065890;28;51051;-43
2022/01/03 01:07:46;;;;;;;;;1.50;0.75;;;;;21.61;44.85;101560.38;5067408;28;51073;-49
2022/01/03 01:10:12;;;;;;;;;1.00;1.00;;;;;21.60;44.63;101566.94;5068491;28;52085;-46
2022/01/03 01:12:41;;;;;;;;;1.75;1.00;;;;;21.59;45.17;101573.53;5060680;28;51336;-45
2022/01/03 01:15:07;;;;;;;;;1.75;1.75;;;;;21.58;45.28;101569.06;5068509;28;51185;-45
2022/01/03 01:17:33;;;;;;;;;2.00;0.00;;;;;21.57;44.79;101564.59;5062627;28;51423;-49
2022/01/03 01:19:59;;;;;;;;;1.00;1.00;;;;;21.56;45.09;101565.66;5064442;28;51142;-45
2022/01/03 01:22:25;;;;;;;;;1.75;0.75;;;;;21.55;44.96;101570.31;5066798;28;51127;-43
2022/01/03 01:27:56;;;;;;;;;1.25;1.25;;;;;21.53;45.00;101563.34;5044151;28;51117;-46
2022/01/03 01:30:25;;;;;;;;;1.25;1.00;;;;;21.52;45.20;101564.41;5033453;28;52843;-47
2022/01/03 01:33:00;;;;;;;;;0.00;0.00;;;;;21.49;45.07;101551.88;5046547;28;51346;-47
2022/01/03 01:35:34;;;;;;;;;4.25;1.00;;;;;21.50;45.26;101552.75;5059108;28;51056;-48
2022/01/03 01:38:01;;;;;;;;;1.25;0.00;;;;;21.49;45.05;101551.03;5074061;28;50961;-44
2022/01/03 01:40:27;;;;;;;;;1.25;1.00;;;;;21.47;44.62;101551.25;5064010;28;51078;-49
2022/01/03 01:42:55;;;;;;;;;0.00;0.00;;;;;21.48;45.31;101546.59;5064989;28;51112;-45
2022/01/03 01:45:25;;;;;;;;;1.25;1.00;;;;;21.46;44.90;101546.78;5057176;28;51242;-44
2022/01/03 01:47:57;;;;;;;;;1.00;1.00;;;;;21.45;45.31;101553.34;5067313;27;51205;-43
2022/01/03 01:50:26;;;;;;;;;1.50;1.50;;;;;21.44;44.74;101553.56;5060608;28;52017;-46
2022/01/03 01:52:54;;;;;;;;;3.00;1.50;;;;;21.44;44.69;101548.06;5065401;28;51058;-45
2022/01/03 01:55:20;;;;;;;;;1.25;1.25;;;;;21.43;45.37;101535.34;5067394;28;51276;-46
2022/01/03 01:58:00;;;;;;;;;0.25;0.00;;;;;21.42;45.26;101544.69;5066753;28;51368;-48
2022/01/03 02:00:26;;;;;;;;;2.00;1.50;;;;;21.41;44.93;101534.72;5073717;27;53801;-44
2022/01/03 02:03:13;;;;;;;;;1.00;1.00;;;;;21.39;44.69;101529.41;5069766;28;51076;-48
2022/01/03 02:05:41;;;;;;;;;1.25;0.00;;;;;21.39;44.93;101528.56;5064281;28;51011;-48
2022/01/03 02:08:13;;;;;;;;;0.00;0.00;;;;;21.38;45.22;101532.38;5071840;28;51180;-47
2022/01/03 02:10:41;;;;;;;;;0.75;0.75;;;;;21.37;45.11;101538.97;5073833;28;51958;-48
2022/01/03 02:13:07;;;;;;;;;5.00;2.00;;;;;21.36;44.82;101531.72;5065094;28;51403;-46
2022/01/03 02:15:35;;;;;;;;;0.00;0.00;;;;;21.36;44.87;101532.56;5068487;28;51021;-47
2022/01/03 02:18:00;;;;;;;;;0.00;0.00;;;;;21.35;45.26;101539.16;5068349;28;51254;-47
2022/01/03 02:20:27;;;;;;;;;1.00;1.00;;;;;21.33;44.93;101547.63;5068141;28;51674;-46
2022/01/03 02:22:53;;;;;;;;;1.00;1.00;;;;;21.32;45.21;101537.66;5063717;28;51128;-45
2022/01/03 02:25:20;;;;;;;;;2.00;0.00;;;;;21.32;44.89;101523.91;5069089;28;51513;-47
2022/01/03 02:27:48;;;;;;;;;2.00;0.00;;;;;21.31;44.96;101524.09;5074289;27;51278;-49
2022/01/03 02:30:20;;;;;;;;;1.25;0.00;;;;;21.31;44.86;101530.47;5063350;28;51973;-44
2022/01/03 02:32:45;;;;;;;;;1.75;0.00;;;;;21.30;45.08;101534.28;5073502;28;51345;-46
2022/01/03 02:35:11;;;;;;;;;2.00;0.00;;;;;21.30;45.33;101545.31;5067170;28;51056;-48
2022/01/03 02:37:40;;;;;;;;;2.00;0.00;;;;;21.28;45.21;101555.69;5068745;28;51145;-44
2022/01/03 02:40:07;;;;;;;;;1.50;0.25;;;;;21.28;45.30;101552.94;5059646;28;51914;-43
2022/01/03 02:42:33;;;;;;;;;0.50;0.50;;;;;21.27;45.27;101551.25;5067903;28;51079;-45
2022/01/03 02:45:02;;;;;;;;;1.50;1.50;;;;;21.28;44.92;101550.19;5064517;28;51221;-48
2022/01/03 02:47:27;;;;;;;;;1.00;0.25;;;;;21.27;45.36;101540.22;5067643;28;51199;-49
2022/01/03 02:49:53;;;;;;;;;0.50;0.00;;;;;21.27;45.01;101536.63;5068775;28;51210;-45
2022/01/03 02:52:19;;;;;;;;;0.50;0.50;;;;;21.25;44.98;101534.03;5068614;28;51303;-44
2022/01/03 02:54:45;;;;;;;;;1.25;0.00;;;;;21.25;45.39;101535.94;5059734;28;51149;-48
2022/01/03 02:57:10;;;;;;;;;1.00;0.00;;;;;21.25;44.84;101546.94;5065982;28;51310;-44
2022/01/03 02:59:35;;;;;;;;;0.25;0.25;;;;;21.24;45.27;101548.84;5073187;28;52395;-48
2022/01/03 03:02:01;;;;;;;;;1.25;1.00;;;;;21.24;45.02;101542.50;5060767;28;51011;-47
2022/01/03 03:04:26;;;;;;;;;0.00;0.00;;;;;21.23;44.97;101541.66;5065477;28;51631;-48
2022/01/03 03:06:51;;;;;;;;;1.75;1.00;;;;;21.22;44.93;101542.72;5068296;28;51278;-47
2022/01/03 03:09:20;;;;;;;;;0.50;0.50;;;;;21.22;44.70;101528.94;5068041;28;51068;-50
2022/01/03 03:11:45;;;;;;;;;0.50;0.00;;;;;21.21;45.26;101524.50;5062747;28;51374;-45
2022/01/03 03:14:10;;;;;;;;;4.00;1.00;;;;;21.21;45.32;101518.97;5065016;28;51143;-46
2022/01/03 03:16:36;;;;;;;;;1.00;0.00;;;;;21.19;44.80;101510.09;5059898;28;51498;-44
2022/01/03 03:19:01;;;;;;;;;0.25;0.25;;;;;21.20;44.82;101509.03;5064160;28;52579;-47
2022/01/03 03:21:31;;;;;;;;;0.00;0.00;;;;;21.19;45.07;101509.25;5065744;28;51090;-47
2022/01/03 03:23:58;;;;;;;;;1.75;1.00;;;;;21.18;45.28;101516.66;5064955;28;51121;-43
2022/01/03 03:26:23;;;;;;;;;1.00;1.00;;;;;21.18;45.40;101513.06;5074868;27;51345;-46
2022/01/03 03:28:49;;;;;;;;;1.00;0.25;;;;;21.17;44.93;101517.72;5067595;28;51927;-49
2022/01/03 03:31:14;;;;;;;;;0.00;0.00;;;;;21.16;45.01;101516.03;5068253;28;51026;-46
2022/01/03 03:33:40;;;;;;;;;1.25;0.00;;;;;21.15;45.42;101514.31;5060364;28;51601;-46
2022/01/03 03:36:06;;;;;;;;;2.00;0.25;;;;;21.15;45.46;101508.78;5067958;28;51014;-45
2022/01/03 03:38:32;;;;;;;;;1.75;1.75;;;;;21.14;45.21;101509.84;5065190;28;51590;-45
2022/01/03 03:40:59;;;;;;;;;0.00;0.00;;;;;21.13;45.26;101505.41;5065926;27;51289;-48
2022/01/03 03:43:25;;;;;;;;;1.25;0.00;;;;;21.14;44.91;101509.84;5064980;27;51169;-46
2022/01/03 03:45:50;;;;;;;;;0.00;0.00;;;;;21.13;45.46;101505.41;5064752;28;51304;-44
2022/01/03 03:48:18;;;;;;;;;1.25;1.25;;;;;21.13;45.49;101505.41;5069689;28;52516;-48
2022/01/03 03:50:46;;;;;;;;;0.00;0.00;;;;;21.12;45.19;101503.72;5067090;27;51065;-46
2022/01/03 03:53:11;;;;;;;;;0.00;0.00;;;;;21.11;45.12;101502.03;5064790;28;51248;-47
2022/01/03 03:55:37;;;;;;;;;0.00;0.00;;;;;21.11;45.39;101498.41;5066077;28;51359;-48
2022/01/03 03:58:04;;;;;;;;;0.25;0.00;;;;;21.10;45.33;101500.31;5061849;28;51961;-45
2022/01/03 04:00:30;;;;;;;;;0.75;0.00;;;;;21.10;44.97;101499.47;5065355;28;51481;-50
2022/01/03 04:02:55;;;;;;;;;2.25;0.00;;;;;21.11;45.18;101501.16;5059537;28;51106;-47
2022/01/03 04:05:21;;;;;;;;;0.00;0.00;;;;;21.09;44.83;101498.63;5064648;28;51372;-48
2022/01/03 04:07:46;;;;;;;;;1.75;1.00;;;;;21.09;45.22;101487.63;5058767;28;51827;-47
2022/01/03 04:10:15;;;;;;;;;1.75;0.50;;;;;21.08;45.47;101474.06;5064826;28;50976;-44
2022/01/03 04:12:41;;;;;;;;;1.75;1.00;;;;;21.07;45.39;101489.75;5074295;28;51108;-48
2022/01/03 04:15:07;;;;;;;;;0.00;0.00;;;;;21.07;44.93;101475.13;5060447;28;51354;-45
2022/01/03 04:17:33;;;;;;;;;3.25;0.00;;;;;21.06;45.33;101470.66;5059893;28;51641;-45
2022/01/03 04:19:58;;;;;;;;;2.00;0.50;;;;;21.06;44.96;101470.66;5067180;28;51126;-48
2022/01/03 04:22:23;;;;;;;;;1.75;1.00;;;;;21.04;45.09;101476.38;5060750;28;51294;-42
2022/01/03 04:24:49;;;;;;;;;1.00;0.00;;;;;21.04;45.41;101474.44;5066759;28;51170;-48
2022/01/03 04:27:15;;;;;;;;;0.50;0.50;;;;;21.04;44.90;101460.69;5070049;27;51611;-46
2022/01/03 04:29:40;;;;;;;;;0.00;0.00;;;;;21.03;45.12;101464.50;5066367;28;50920;-46
2022/01/03 04:32:06;;;;;;;;;0.00;0.00;;;;;21.03;45.10;101463.66;5062354;27;51535;-46
2022/01/03 04:34:31;;;;;;;;;1.00;1.00;;;;;21.03;45.38;101458.16;5064079;28;51184;-44
2022/01/03 04:36:57;;;;;;;;;0.00;0.00;;;;;21.01;45.15;101460.28;5064739;28;51040;-46
2022/01/03 04:39:23;;;;;;;;;0.50;0.50;;;;;21.02;45.33;101448.19;5066791;28;51246;-45
2022/01/03 04:41:49;;;;;;;;;1.50;0.50;;;;;21.01;45.45;101444.59;5066630;27;51417;-48
2022/01/03 04:44:14;;;;;;;;;1.00;0.00;;;;;21.00;45.43;101440.16;5071876;27;51007;-46
2022/01/03 04:46:40;;;;;;;;;0.50;0.00;;;;;21.00;45.40;101434.63;5073807;28;52538;-46
2022/01/03 04:49:07;;;;;;;;;0.50;0.00;;;;;21.00;45.11;101445.66;5065020;28;51180;-47
2022/01/03 04:51:33;;;;;;;;;1.00;0.00;;;;;21.00;45.47;101439.28;5064886;28;51147;-45
2022/01/03 04:53:59;;;;;;;;;1.00;0.00;;;;;20.99;45.05;101437.59;5065433;28;51150;-45
2022/01/03 04:56:27;;;;;;;;;1.00;1.00;;;;;20.98;45.57;101436.75;5067633;27;52007;-46
2022/01/03 04:58:53;;;;;;;;;0.50;0.50;;;;;20.98;45.44;101450.53;5059506;28;51613;-46
2022/01/03 05:01:18;;;;;;;;;2.00;0.25;;;;;20.97;45.01;101439.72;5065427;28;50993;-43
2022/01/03 05:03:44;;;;;;;;;2.25;0.00;;;;;20.97;45.09;101434.22;5066263;28;51154;-47
2022/01/03 05:06:09;;;;;;;;;0.00;0.00;;;;;20.95;45.50;101434.44;5064515;28;51151;-47
2022/01/03 05:08:34;;;;;;;;;0.25;0.00;;;;;20.95;45.39;101437.19;5066581;28;50919;-49
2022/01/03 05:11:03;;;;;;;;;0.00;0.00;;;;;20.95;45.29;101434.44;5061344;27;51199;-44
2022/01/03 05:13:30;;;;;;;;;0.00;0.00;;;;;20.95;45.50;101426.16;5060200;28;51103;-44
2022/01/03 05:15:57;;;;;;;;;1.25;0.25;;;;;20.96;45.35;101427.03;5057278;28;52173;-47
2022/01/03 05:18:22;;;;;;;;;2.00;1.00;;;;;20.95;45.31;101425.31;5063344;28;51133;-42
2022/01/03 05:20:48;;;;;;;;;1.00;1.00;;;;;20.95;44.93;101436.34;5068988;28;50991;-44
2022/01/03 05:23:13;;;;;;;;;0.00;0.00;;;;;20.94;45.46;101434.63;5064116;28;51292;-45
2022/01/03 05:25:38;;;;;;;;;0.50;0.25;;;;;20.94;45.38;101423.59;5066611;28;51012;-45
2022/01/03 05:28:04;;;;;;;;;0.00;0.00;;;;;20.94;45.05;101429.13;5069595;27;51325;-47
2022/01/03 05:30:30;;;;;;;;;3.75;0.00;;;;;20.93;45.41;101430.16;5064554;28;51140;-45
2022/01/03 05:32:55;;;;;;;;;0.50;0.25;;;;;20.93;45.09;101430.16;5065071;28;51254;-46
2022/01/03 05:35:21;;;;;;;;;1.00;0.00;;;;;20.91;45.07;101435.91;5072526;28;51152;-45
2022/01/03 05:37:46;;;;;;;;;0.00;0.00;;;;;20.92;44.96;101425.72;5069871;28;51149;-46
2022/01/03 05:40:11;;;;;;;;;2.50;0.75;;;;;20.92;45.49;101437.59;5073902;28;51024;-44
2022/01/03 05:42:37;;;;;;;;;2.00;0.00;;;;;20.91;45.08;101429.53;5059628;28;51251;-45
2022/01/03 05:45:04;;;;;;;;;0.25;0.25;;;;;20.91;45.19;101441.41;5066501;28;51624;-45
2022/01/03 05:47:30;;;;;;;;;1.00;0.50;;;;;20.90;45.09;101433.34;5073495;28;51203;-44
2022/01/03 05:49:56;;;;;;;;;0.75;0.00;;;;;20.90;45.50;101433.34;5069275;27;50916;-47
2022/01/03 05:52:22;;;;;;;;;0.00;0.00;;;;;20.89;45.08;101439.94;5070074;28;51660;-42
2022/01/03 05:54:47;;;;;;;;;0.00;0.00;;;;;20.89;45.49;101431.66;5066339;28;51040;-42
2022/01/03 05:57:13;;;;;;;;;1.00;0.00;;;;;20.87;45.37;101434.63;5070655;28;50966;-47
2022/01/03 05:59:38;;;;;;;;;0.00;0.00;;;;;20.87;45.10;101439.28;5064208;28;51122;-46
2022/01/03 06:02:04;;;;;;;;;1.00;0.75;;;;;20.87;45.46;101437.38;5067873;28;51107;-46
2022/01/03 06:07:27;;;;;;;;;4.00;0.00;;;;;20.86;45.50;101438.44;5030171;27;51239;-49
2022/01/03 06:09:53;;;;;;;;;3.50;1.00;;;;;20.87;45.01;101442.06;5066758;28;51071;-49
2022/01/03 06:12:20;;;;;;;;;1.00;1.00;;;;;20.86;45.37;101432.94;5071442;28;51036;-46
2022/01/03 06:14:47;;;;;;;;;0.00;0.00;;;;;20.85;45.43;101430.41;5065023;28;51046;-45
2022/01/03 06:17:14;;;;;;;;;0.00;0.00;;;;;20.85;45.03;101442.25;5071389;28;51314;-43
2022/01/03 06:19:40;;;;;;;;;1.00;1.00;;;;;20.85;44.96;101450.53;5065584;28;51216;-44
2022/01/03 06:22:09;;;;;;;;;2.00;1.00;;;;;20.82;44.58;101453.69;5069280;28;51114;-47
2022/01/03 06:24:37;;;;;;;;;3.00;2.00;;;;;20.79;44.43;101448.59;5068838;28;51879;-44
2022/01/03 06:27:03;;;;;;;;;2.00;1.50;;;;;20.75;43.92;101448.19;5069902;27;51043;-42
2022/01/03 06:29:29;;;;;;;;;7.25;2.00;;;;;20.72;43.87;101448.59;5063794;28;51147;-43
2022/01/03 06:31:54;;;;;;;;;3.50;2.00;;;;;20.69;43.68;101437.16;5059679;28;51177;-43
2022/01/03 06:34:19;;;;;;;;;2.75;1.75;;;;;20.65;43.93;101442.25;5062506;27;52931;-44
2022/01/03 06:36:46;;;;;;;;;3.00;0.00;;;;;20.61;43.71;101434.59;5063658;28;51426;-44
2022/01/03 06:39:12;;;;;;;;;4.25;1.75;;;;;20.58;43.90;101432.25;5060376;28;51247;-45
2022/01/03 06:41:39;;;;;;;;;6.00;1.75;;;;;20.56;43.37;101420.63;5063743;27;51231;-41
2022/01/03 06:44:05;;;;;;;;;5.50;1.75;;;;;20.55;43.36;101406.00;5062348;28;51269;-46
2022/01/03 06:46:30;;;;;;;;;2.25;2.00;;;;;20.59;43.75;101410.03;5062772;28;51307;-50
2022/01/03 06:48:56;;;;;;;;;2.25;1.00;;;;;20.64;44.21;101399.25;5060016;28;51323;-45
2022/01/03 06:51:21;;;;;;;;;1.00;1.00;;;;;20.73;43.94;101397.13;5073428;28;51039;-42
2022/01/03 06:53:47;;;;;;;;;2.00;1.00;;;;;20.80;44.35;101400.72;5067445;28;51901;-42
2022/01/03 06:56:12;;;;;;;;;4.50;1.75;;;;;20.91;44.15;101410.25;5059811;28;51216;-43
2022/01/03 06:58:38;;;;;;;;;1.00;0.75;;;;;20.99;43.85;101410.06;5062162;28;51959;-47
2022/01/03 07:01:04;;;;;;;;;1.50;1.25;;;;;21.08;44.11;101414.31;5067827;28;51783;-45
2022/01/03 07:03:29;;;;;;;;;2.75;1.00;;;;;21.17;44.07;101412.19;5065227;27;51092;-46
2022/01/03 07:05:54;;;;;;;;;0.75;0.75;;;;;21.24;43.90;101408.34;5059863;28;51202;-47
2022/01/03 07:08:21;;;;;;;;;2.25;0.75;;;;;21.29;44.24;101410.50;5069879;28;51588;-43
2022/01/03 07:10:47;;;;;;;;;1.50;1.00;;;;;21.32;44.38;101407.31;5060019;28;51084;-45
2022/01/03 07:13:12;;;;;;;;;2.50;1.00;;;;;21.33;43.93;101404.34;5060090;28;51949;-44
2022/01/03 07:21:05;;;;;;;;;1.00;1.00;;;;;21.33;44.42;101396.06;5072232;27;51144;-45
2022/01/03 07:23:31;;;;;;;;;4.00;2.00;;;;;21.37;45.01;101399.25;5065915;28;52107;-46
2022/01/03 07:25:56;;;;;;;;;3.00;1.50;;;;;21.42;44.56;101404.09;5068792;27;51212;-43
2022/01/03 07:28:22;;;;;;;;;0.00;0.00;;;;;21.50;44.84;101395.63;5063242;27;51110;-43
2022/01/03 07:30:47;;;;;;;;;4.25;1.00;;;;;21.54;44.79;101396.88;5055345;28;51090;-46
2022/01/03 07:33:13;;;;;;;;;2.00;0.00;;;;;21.57;44.91;101399.19;5062079;28;51149;-44
2022/01/03 07:35:38;;;;;;;;;2.00;1.00;;;;;21.58;44.72;101399.00;5065073;28;51339;-45
2022/01/03 07:38:04;;;;;;;;;1.75;1.00;;;;;21.57;45.38;101399.19;5059749;28;51324;-46
2022/01/03 07:40:30;;;;;;;;;0.75;0.75;;;;;21.57;45.24;101393.66;5062743;28;51168;-44
2022/01/03 07:42:56;;;;;;;;;3.50;1.00;;;;;21.56;45.26;101390.06;5062837;28;51755;-46
2022/01/03 07:45:22;;;;;;;;;1.00;1.00;;;;;21.55;45.29;101387.53;5064824;27;51178;-47
2022/01/03 07:47:47;;;;;;;;;3.50;3.25;;;;;21.55;45.10;101388.38;5057631;28;51298;-48
2022/01/03 07:50:13;;;;;;;;;1.00;1.00;;;;;21.58;44.84;101395.41;5058457;28;51768;-47
2022/01/03 07:52:39;;;;;;;;;3.00;1.75;;;;;21.64;44.99;101383.47;5063311;28;51146;-48
2022/01/03 07:55:07;;;;;;;;;1.00;1.00;;;;;21.68;44.96;101381.16;5063844;27;51105;-47
2022/01/03 07:57:33;;;;;;;;;2.00;2.00;;;;;21.69;45.26;101386.44;5056186;28;51166;-46
2022/01/03 07:59:59;;;;;;;;;2.25;0.00;;;;;21.71;44.72;101375.19;5062058;28;51254;-47
2022/01/03 08:02:24;;;;;;;;;1.50;1.50;;;;;21.70;45.11;101381.78;5056061;28;51199;-47
2022/01/03 08:04:50;;;;;;;;;4.25;1.00;;;;;21.69;45.23;101367.16;5059425;28;51041;-42
2022/01/03 08:07:16;;;;;;;;;6.00;1.25;;;;;21.68;45.02;101361.84;5065675;28;51160;-45
2022/01/03 08:09:41;;;;;;;;;2.50;1.50;;;;;21.65;44.68;101362.25;5066283;27;51141;-42
2022/01/03 08:12:07;;;;;;;;;4.00;1.25;;;;;21.61;44.93;101359.97;5056280;28;51644;-46
2022/01/03 08:14:33;;;;;;;;;3.00;2.00;;;;;21.59;45.16;101361.25;5064070;28;51293;-43
2022/01/03 08:16:59;;;;;;;;;4.50;2.75;;;;;21.58;44.88;101356.78;5063188;28;51152;-47
2022/01/03 08:19:25;;;;;;;;;2.75;1.75;;;;;21.54;45.15;101355.50;5065751;28;51044;-42
2022/01/03 08:21:50;;;;;;;;;1.75;1.50;;;;;21.53;45.17;101351.91;5062877;28;51226;-45
2022/01/03 08:24:17;;;;;;;;;3.50;2.00;;;;;21.48;45.34;101357.25;5065330;27;51236;-44
2022/01/03 08:26:43;;;;;;;;;3.50;2.00;;;;;21.46;45.40;101344.72;5067582;27;51083;-48
2022/01/03 08:29:09;;;;;;;;;4.00;2.25;;;;;21.42;44.79;101352.59;5058466;28;51158;-44
2022/01/03 08:31:36;;;;;;;;;4.25;2.00;;;;;21.41;44.82;101344.53;5055954;28;51234;-46
2022/01/03 08:34:03;;;;;;;;;1.75;1.25;;;;;21.39;45.51;101343.91;5062775;28;51347;-46
2022/01/03 08:36:28;;;;;;;;;4.00;2.00;;;;;21.37;45.33;101343.28;5068682;28;51084;-45
2022/01/03 08:38:53;;;;;;;;;4.00;3.00;;;;;21.35;45.51;101342.63;5067272;28;50990;-44
2022/01/03 08:41:19;;;;;;;;;4.50;3.00;;;;;21.32;45.06;101338.41;5064229;28;52055;-45
2022/01/03 08:43:44;;;;;;;;;3.25;2.00;;;;;21.30;45.46;101343.31;5065556;28;50973;-48
2022/01/03 08:46:09;;;;;;;;;3.75;2.50;;;;;21.28;45.04;101343.53;5056102;28;51060;-48
2022/01/03 08:48:35;;;;;;;;;3.75;1.25;;;;;21.26;45.57;101333.78;5068992;28;51031;-45
2022/01/03 08:51:00;;;;;;;;;1.75;1.50;;;;;21.24;45.15;101327.59;5066286;28;51390;-44
2022/01/03 08:53:26;;;;;;;;;1.50;1.50;;;;;21.22;45.63;101326.97;5062690;28;51122;-46
2022/01/03 08:55:56;;;;;;;;;3.25;1.00;;;;;21.20;45.11;101329.94;5069957;28;51356;-45
2022/01/03 08:58:23;;;;;;;;;1.50;1.00;;;;;21.19;45.74;101313.63;5063076;28;51355;-44
2022/01/03 09:00:48;;;;;;;;;2.75;2.00;;;;;21.18;45.26;101326.56;5062007;28;52385;-43
2022/01/03 09:03:15;;;;;;;;;3.00;2.00;;;;;21.17;45.80;101332.28;5067679;28;51703;-44
2022/01/03 09:05:41;;;;;;;;;2.50;1.00;;;;;21.14;45.71;101325.28;5069147;28;51379;-42
2022/01/03 09:08:08;;;;;;;;;1.25;1.25;;;;;21.13;45.55;101323.59;5074549;28;50990;-42
2022/01/03 09:10:33;;;;;;;;;3.00;1.50;;;;;21.12;45.51;101319.13;5066584;28;52076;-44
2022/01/03 09:12:59;;;;;;;;;3.25;1.50;;;;;21.10;45.89;101329.53;5072622;28;51133;-42
2022/01/03 09:15:25;;;;;;;;;4.25;2.50;;;;;21.09;45.37;101327.84;5068235;27;51266;-42
2022/01/03 09:17:50;;;;;;;;;2.00;2.00;;;;;21.07;45.66;101323.63;5067482;28;51074;-46
2022/01/03 09:20:16;;;;;;;;;1.25;1.25;;;;;21.06;45.56;101324.69;5061867;28;51163;-48
2022/01/03 09:22:46;;;;;;;;;1.25;1.25;;;;;21.05;45.81;101329.34;5067070;28;51321;-47
2022/01/03 09:30:32;;;;;;;;;2.50;1.50;;;;;21.01;45.85;101331.66;5063538;28;51449;-46
2022/01/03 09:32:57;;;;;;;;;2.25;1.50;;;;;21.01;46.13;101328.91;5065315;27;51175;-44
2022/01/03 09:35:23;;;;;;;;;4.00;1.25;;;;;21.01;45.95;101325.31;5068324;28;51404;-46
2022/01/03 09:37:49;;;;;;;;;6.00;2.00;;;;;21.00;45.89;101320.88;5064683;28;51843;-42
2022/01/03 09:40:15;;;;;;;;;2.25;1.75;;;;;20.99;45.61;101325.53;5058729;28;51116;-46
2022/01/03 09:42:43;;;;;;;;;1.25;1.25;;;;;20.99;45.69;101321.94;5068115;28;51269;-50
2022/01/03 09:45:11;;;;;;;;;1.00;1.00;;;;;20.98;45.96;101317.47;5067610;28;51148;-46
2022/01/03 09:47:44;;;;;;;;;3.00;1.00;;;;;20.94;45.76;101310.69;5073656;27;51411;-48
2022/01/03 09:50:12;;;;;;;;;2.50;2.50;;;;;20.94;45.83;101327.22;5066096;28;51877;-49
2022/01/03 09:52:39;;;;;;;;;4.25;2.75;;;;;20.94;46.19;101328.06;5060890;28;51096;-47
2022/01/03 09:55:05;;;;;;;;;3.50;1.00;;;;;20.94;46.20;101329.97;5064815;28;51072;-46
2022/01/03 09:57:31;;;;;;;;;1.00;1.00;;;;;20.93;46.36;101337.38;5063110;28;51434;-49
2022/01/03 09:59:59;;;;;;;;;2.00;1.00;;;;;20.93;45.92;101334.63;5058327;28;51857;-42
2022/01/03 10:02:25;;;;;;;;;3.00;1.00;;;;;20.92;45.97;101326.59;5060709;28;51167;-45
2022/01/03 10:04:50;;;;;;;;;1.25;1.25;;;;;20.93;46.18;101326.38;5058259;28;51266;-46
2022/01/03 10:07:17;;;;;;;;;4.00;2.00;;;;;21.01;46.10;101317.03;5056328;28;52224;-45
2022/01/03 10:09:43;;;;;;;;;3.50;1.25;;;;;21.10;45.84;101318.50;5056519;27;51743;-46
2022/01/03 10:12:11;;;;;;;;;3.00;2.50;;;;;21.20;46.08;101326.34;5061319;28;51526;-43
2022/01/03 10:14:37;;;;;;;;;2.00;1.00;;;;;21.29;45.21;101322.31;5057540;27;51168;-47
2022/01/03 10:17:02;;;;;;;;;3.00;2.25;;;;;21.39;45.20;101327.38;5057157;28;51206;-46
2022/01/03 10:19:28;;;;;;;;;3.75;1.75;;;;;21.48;45.06;101326.94;5061997;27;51191;-45
2022/01/03 10:21:53;;;;;;;;;1.00;1.00;;;;;21.58;45.08;101326.47;5059968;27;50906;-48
2022/01/03 10:24:31;;;;;;;;;2.25;2.00;;;;;21.61;45.56;101321.34;5055507;28;51347;-48
2022/01/03 10:26:57;;;;;;;;;2.00;2.00;;;;;21.63;44.98;101318.38;5062824;27;51789;-47
2022/01/03 10:29:26;;;;;;;;;3.00;1.00;;;;;21.61;45.11;101307.56;5057813;27;51700;-47
2022/01/03 10:31:54;;;;;;;;;6.00;3.00;;;;;21.60;45.08;101297.63;5056080;27;51317;-49
2022/01/03 10:34:23;;;;;;;;;1.50;1.50;;;;;21.57;45.35;101299.94;5061452;27;51049;-50
2022/01/03 10:36:51;;;;;;;;;2.25;2.00;;;;;21.56;45.28;101301.00;5058822;27;51279;-50
2022/01/03 10:39:24;;;;;;;;;2.50;2.25;;;;;21.57;45.42;101303.56;5059721;27;52095;-45
2022/01/03 10:41:52;;;;;;;;;4.50;2.25;;;;;21.64;45.52;101295.25;5058057;27;52373;-46
2022/01/03 10:44:40;;;;;;;;;2.75;0.75;;;;;21.68;44.78;101288.25;5056601;27;51191;-45
2022/01/03 10:47:08;;;;;;;;;2.75;2.00;;;;;21.70;45.43;101275.09;5056778;28;51179;-49
2022/01/03 10:49:34;;;;;;;;;3.25;2.50;;;;;21.71;45.29;101278.69;5056270;28;52362;-47
2022/01/03 10:52:13;;;;;;;;;5.50;3.75;;;;;21.69;45.21;101261.53;5060205;27;51343;-45
2022/01/03 10:54:39;;;;;;;;;3.25;2.50;;;;;21.67;45.10;101266.38;5056206;28;52208;-45
2022/01/03 10:57:04;;;;;;;;;6.50;3.00;;;;;21.63;45.13;101252.22;5058410;27;51182;-47
2022/01/03 10:59:31;;;;;;;;;3.75;3.00;;;;;21.64;45.07;101253.91;5055963;28;52566;-44
2022/01/03 11:02:00;;;;;;;;;4.00;4.00;;;;;21.68;44.85;101260.69;5064394;27;51556;-46
2022/01/03 11:04:50;;;;;;;;;3.50;3.50;;;;;21.74;45.11;101258.94;5062751;28;53304;-47
2022/01/03 11:13:09;;;;;;;;;7.00;6.25;;;;;21.75;45.04;101233.91;5057094;27;52660;-45
2022/01/03 11:15:42;;;;;;;;;4.00;3.25;;;;;21.74;44.95;101236.88;5055769;28;52254;-46
2022/01/03 11:18:18;;;;;;;;;5.00;5.00;;;;;21.71;45.28;101238.19;5060014;27;51076;-47
2022/01/03 11:20:47;;;;;;;;;3.50;3.50;;;;;21.69;44.85;101243.06;5059980;27;51888;-49
2022/01/03 11:23:21;;;;;;;;;4.25;4.25;;;;;21.73;44.96;101232.44;5056593;27;51098;-48
2022/01/03 11:25:46;;;;;;;;;5.25;3.00;;;;;21.78;44.54;101216.06;5060576;27;51268;-50
2022/01/03 11:28:13;;;;;;;;;4.00;3.50;;;;;21.82;44.67;101209.03;5063522;27;51009;-46
2022/01/03 11:30:40;;;;;;;;;5.50;3.00;;;;;21.85;44.37;101211.34;5073635;27;52050;-47
2022/01/03 11:33:09;;;;;;;;;3.50;3.50;;;;;21.84;44.42;101207.75;5060517;27;51273;-47
2022/01/03 11:35:35;;;;;;;;;5.00;4.00;;;;;21.86;44.45;101199.25;5060196;28;51743;-46
2022/01/03 11:38:02;;;;;;;;;6.75;5.00;;;;;21.86;45.13;101196.50;5063638;28;51104;-48
2022/01/03 11:40:28;;;;;;;;;4.50;4.00;;;;;21.87;45.23;101192.66;5065071;28;52015;-48
2022/01/03 11:42:53;;;;;;;;;5.00;5.00;;;;;21.87;44.79;101193.50;5064794;28;51188;-49
2022/01/03 11:45:19;;;;;;;;;4.50;3.00;;;;;21.88;45.28;101181.44;5056134;28;51462;-49